Terminal Aerodrome Forecast
Issued by NWS Shreveport, LA

Home | Current Version | Previous Version | Text Only | Print | Product List | Glossary On
Versions: 1 2 3 4 5 6 7 8 9 10 11 12 13 14 15 16 17 18
000
FTUS44 KSHV 152300
TAFTYR
TAF
KTYR 152320Z 1600/1624 VRB03KT P6SM SKC
     FM160600 14006KT P6SM SKC
     FM161400 14011KT P6SM SCT250
     FM161700 15012KT P6SM BKN250=

USA.gov is the U.S. government's official web portal to all federal, state and local government web resources and services.